CMB806 Details

Departure: Joint Base McGuire Dix Lakehurst (KWRI)
Arrival: Thule Air Base (BGTL) at N/A
Notes: USTRANSCOM CONTRACT FLIGHT


Current Weather Information
KWRI 250356Z AUTO 00000KT 10SM SCT075 15/13 A3023 RMK AO2 SLP236 T01530130 $
BGTL 250356Z AUTO 13027KT 9999 SCT060 OVC100 06/01 A2965 RMK AO2 PK WND 13034/36 SLP024 T00620011 400790046 TSNO $